sensor_id;sensor_type;location;lat;lon;timestamp;P1;durP1;ratioP1;P2;durP2;ratioP2
31368;SDS011;18004;48.416;10.066;2023-06-22T00:02:58;8.88;;;5.93;;
31368;SDS011;18004;48.416;10.066;2023-06-22T00:05:24;8.25;;;5.25;;
31368;SDS011;18004;48.416;10.066;2023-06-22T00:08:01;8.60;;;5.72;;
31368;SDS011;18004;48.416;10.066;2023-06-22T00:10:29;11.65;;;6.13;;
31368;SDS011;18004;48.416;10.066;2023-06-22T00:12:55;10.18;;;5.97;;
31368;SDS011;18004;48.416;10.066;2023-06-22T00:15:21;17.35;;;7.03;;
31368;SDS011;18004;48.416;10.066;2023-06-22T00:17:50;17.05;;;6.00;;
31368;SDS011;18004;48.416;10.066;2023-06-22T00:20:22;12.77;;;6.65;;
31368;SDS011;18004;48.416;10.066;2023-06-22T00:22:53;12.45;;;6.25;;
31368;SDS011;18004;48.416;10.066;2023-06-22T00:25:19;11.43;;;6.68;;
31368;SDS011;18004;48.416;10.066;2023-06-22T00:27:45;10.88;;;6.80;;
31368;SDS011;18004;48.416;10.066;2023-06-22T00:30:11;9.90;;;6.78;;
31368;SDS011;18004;48.416;10.066;2023-06-22T00:32:37;9.38;;;6.20;;
31368;SDS011;18004;48.416;10.066;2023-06-22T00:35:03;13.38;;;7.07;;
31368;SDS011;18004;48.416;10.066;2023-06-22T00:37:30;11.75;;;6.43;;
31368;SDS011;18004;48.416;10.066;2023-06-22T00:39:55;17.50;;;7.22;;
31368;SDS011;18004;48.416;10.066;2023-06-22T00:42:22;13.05;;;7.30;;
31368;SDS011;18004;48.416;10.066;2023-06-22T00:44:48;10.18;;;6.30;;
31368;SDS011;18004;48.416;10.066;2023-06-22T00:47:17;10.98;;;6.20;;
31368;SDS011;18004;48.416;10.066;2023-06-22T00:49:44;8.82;;;6.40;;
31368;SDS011;18004;48.416;10.066;2023-06-22T00:52:12;13.60;;;6.07;;
31368;SDS011;18004;48.416;10.066;2023-06-22T00:54:49;11.48;;;6.20;;
31368;SDS011;18004;48.416;10.066;2023-06-22T00:57:16;9.48;;;6.35;;
31368;SDS011;18004;48.416;10.066;2023-06-22T00:59:45;10.50;;;5.75;;
31368;SDS011;18004;48.416;10.066;2023-06-22T01:02:12;11.90;;;6.32;;
31368;SDS011;18004;48.416;10.066;2023-06-22T01:04:39;14.48;;;6.57;;
31368;SDS011;18004;48.416;10.066;2023-06-22T01:12:34;9.27;;;6.32;;
31368;SDS011;18004;48.416;10.066;2023-06-22T01:15:08;9.05;;;6.03;;
31368;SDS011;18004;48.416;10.066;2023-06-22T01:17:54;8.48;;;5.93;;
31368;SDS011;18004;48.416;10.066;2023-06-22T01:20:22;13.50;;;5.90;;
31368;SDS011;18004;48.416;10.066;2023-06-22T01:25:33;8.15;;;5.45;;
31368;SDS011;18004;48.416;10.066;2023-06-22T01:28:34;16.40;;;6.95;;
31368;SDS011;18004;48.416;10.066;2023-06-22T01:31:25;11.10;;;5.22;;
31368;SDS011;18004;48.416;10.066;2023-06-22T01:33:55;11.55;;;6.15;;
31368;SDS011;18004;48.416;10.066;2023-06-22T01:36:24;12.38;;;6.07;;
31368;SDS011;18004;48.416;10.066;2023-06-22T01:38:51;16.45;;;5.63;;
31368;SDS011;18004;48.416;10.066;2023-06-22T01:41:19;11.90;;;6.70;;
31368;SDS011;18004;48.416;10.066;2023-06-22T01:43:45;13.98;;;6.20;;
31368;SDS011;18004;48.416;10.066;2023-06-22T01:46:13;17.55;;;5.63;;
31368;SDS011;18004;48.416;10.066;2023-06-22T01:48:39;9.30;;;5.18;;
31368;SDS011;18004;48.416;10.066;2023-06-22T01:51:06;9.85;;;5.55;;
31368;SDS011;18004;48.416;10.066;2023-06-22T01:53:31;10.25;;;5.35;;
31368;SDS011;18004;48.416;10.066;2023-06-22T01:55:57;8.68;;;4.85;;
31368;SDS011;18004;48.416;10.066;2023-06-22T01:58:25;10.15;;;6.13;;
31368;SDS011;18004;48.416;10.066;2023-06-22T02:01:28;9.98;;;5.95;;
31368;SDS011;18004;48.416;10.066;2023-06-22T02:04:03;10.25;;;5.72;;
31368;SDS011;18004;48.416;10.066;2023-06-22T02:06:37;9.32;;;5.25;;
31368;SDS011;18004;48.416;10.066;2023-06-22T02:09:11;13.38;;;5.60;;
31368;SDS011;18004;48.416;10.066;2023-06-22T02:11:41;8.05;;;5.18;;
31368;SDS011;18004;48.416;10.066;2023-06-22T02:14:09;9.23;;;5.57;;
31368;SDS011;18004;48.416;10.066;2023-06-22T02:16:37;13.82;;;5.90;;
31368;SDS011;18004;48.416;10.066;2023-06-22T02:19:03;8.63;;;4.85;;
31368;SDS011;18004;48.416;10.066;2023-06-22T02:21:29;14.95;;;5.47;;
31368;SDS011;18004;48.416;10.066;2023-06-22T02:23:56;9.63;;;5.90;;
31368;SDS011;18004;48.416;10.066;2023-06-22T02:26:22;8.68;;;5.00;;
31368;SDS011;18004;48.416;10.066;2023-06-22T02:28:48;11.88;;;5.75;;
31368;SDS011;18004;48.416;10.066;2023-06-22T02:31:14;8.95;;;5.03;;
31368;SDS011;18004;48.416;10.066;2023-06-22T02:33:41;7.82;;;5.05;;
31368;SDS011;18004;48.416;10.066;2023-06-22T02:36:06;7.10;;;4.97;;
31368;SDS011;18004;48.416;10.066;2023-06-22T02:38:34;9.13;;;5.22;;
31368;SDS011;18004;48.416;10.066;2023-06-22T02:41:01;11.77;;;5.35;;
31368;SDS011;18004;48.416;10.066;2023-06-22T02:43:27;11.27;;;5.30;;
31368;SDS011;18004;48.416;10.066;2023-06-22T02:45:53;10.80;;;5.43;;
31368;SDS011;18004;48.416;10.066;2023-06-22T02:48:19;16.15;;;5.55;;
31368;SDS011;18004;48.416;10.066;2023-06-22T02:50:45;8.90;;;5.32;;
31368;SDS011;18004;48.416;10.066;2023-06-22T02:53:11;9.63;;;5.53;;
31368;SDS011;18004;48.416;10.066;2023-06-22T02:55:36;9.68;;;4.95;;
31368;SDS011;18004;48.416;10.066;2023-06-22T02:58:04;11.70;;;5.95;;
31368;SDS011;18004;48.416;10.066;2023-06-22T03:00:30;9.15;;;5.03;;
31368;SDS011;18004;48.416;10.066;2023-06-22T03:02:56;7.25;;;4.82;;
31368;SDS011;18004;48.416;10.066;2023-06-22T03:05:23;11.18;;;4.97;;
31368;SDS011;18004;48.416;10.066;2023-06-22T03:07:49;10.75;;;5.28;;
31368;SDS011;18004;48.416;10.066;2023-06-22T03:10:15;14.63;;;5.45;;
31368;SDS011;18004;48.416;10.066;2023-06-22T03:12:41;7.30;;;5.13;;
31368;SDS011;18004;48.416;10.066;2023-06-22T03:15:09;8.68;;;5.35;;
31368;SDS011;18004;48.416;10.066;2023-06-22T03:17:36;7.35;;;5.68;;
31368;SDS011;18004;48.416;10.066;2023-06-22T03:20:07;5.88;;;4.57;;
31368;SDS011;18004;48.416;10.066;2023-06-22T03:22:41;7.82;;;5.25;;
31368;SDS011;18004;48.416;10.066;2023-06-22T03:25:08;10.80;;;5.18;;
31368;SDS011;18004;48.416;10.066;2023-06-22T03:27:40;8.65;;;5.15;;
31368;SDS011;18004;48.416;10.066;2023-06-22T03:30:07;11.00;;;5.28;;
31368;SDS011;18004;48.416;10.066;2023-06-22T03:32:34;9.05;;;5.15;;
31368;SDS011;18004;48.416;10.066;2023-06-22T03:34:59;11.95;;;5.15;;
31368;SDS011;18004;48.416;10.066;2023-06-22T03:37:26;9.70;;;5.18;;
31368;SDS011;18004;48.416;10.066;2023-06-22T03:39:52;11.50;;;6.45;;
31368;SDS011;18004;48.416;10.066;2023-06-22T03:42:18;10.90;;;5.45;;
31368;SDS011;18004;48.416;10.066;2023-06-22T03:44:44;8.70;;;5.38;;
31368;SDS011;18004;48.416;10.066;2023-06-22T03:47:10;8.60;;;5.28;;
31368;SDS011;18004;48.416;10.066;2023-06-22T03:49:36;9.00;;;5.40;;
31368;SDS011;18004;48.416;10.066;2023-06-22T03:52:02;7.65;;;4.72;;
31368;SDS011;18004;48.416;10.066;2023-06-22T03:54:28;8.63;;;4.90;;
31368;SDS011;18004;48.416;10.066;2023-06-22T03:56:55;8.65;;;5.40;;
31368;SDS011;18004;48.416;10.066;2023-06-22T03:59:22;9.45;;;5.75;;
31368;SDS011;18004;48.416;10.066;2023-06-22T04:01:48;9.77;;;5.53;;
31368;SDS011;18004;48.416;10.066;2023-06-22T04:04:14;15.00;;;5.30;;
31368;SDS011;18004;48.416;10.066;2023-06-22T04:06:39;12.52;;;5.10;;
31368;SDS011;18004;48.416;10.066;2023-06-22T04:09:05;8.60;;;5.18;;
31368;SDS011;18004;48.416;10.066;2023-06-22T04:11:32;7.57;;;5.68;;
31368;SDS011;18004;48.416;10.066;2023-06-22T04:13:57;11.25;;;5.95;;
31368;SDS011;18004;48.416;10.066;2023-06-22T04:16:23;7.93;;;5.07;;
31368;SDS011;18004;48.416;10.066;2023-06-22T04:18:49;9.15;;;5.50;;
31368;SDS011;18004;48.416;10.066;2023-06-22T04:21:14;9.93;;;5.00;;
31368;SDS011;18004;48.416;10.066;2023-06-22T04:23:40;10.23;;;5.53;;
31368;SDS011;18004;48.416;10.066;2023-06-22T04:26:06;8.77;;;4.95;;
31368;SDS011;18004;48.416;10.066;2023-06-22T04:28:32;7.18;;;4.88;;
31368;SDS011;18004;48.416;10.066;2023-06-22T04:31:03;5.45;;;3.97;;
31368;SDS011;18004;48.416;10.066;2023-06-22T04:33:30;10.00;;;5.20;;
31368;SDS011;18004;48.416;10.066;2023-06-22T04:35:56;10.18;;;4.60;;
31368;SDS011;18004;48.416;10.066;2023-06-22T04:38:22;10.30;;;5.25;;
31368;SDS011;18004;48.416;10.066;2023-06-22T04:40:49;4.22;;;2.75;;
31368;SDS011;18004;48.416;10.066;2023-06-22T04:43:15;6.65;;;4.22;;
31368;SDS011;18004;48.416;10.066;2023-06-22T04:45:41;9.63;;;5.22;;
31368;SDS011;18004;48.416;10.066;2023-06-22T04:48:07;8.98;;;5.20;;
31368;SDS011;18004;48.416;10.066;2023-06-22T04:50:40;9.10;;;4.85;;
31368;SDS011;18004;48.416;10.066;2023-06-22T04:53:06;5.40;;;4.20;;
31368;SDS011;18004;48.416;10.066;2023-06-22T04:55:34;10.05;;;4.60;;
31368;SDS011;18004;48.416;10.066;2023-06-22T04:58:03;10.23;;;5.13;;
31368;SDS011;18004;48.416;10.066;2023-06-22T05:00:30;7.97;;;4.72;;
31368;SDS011;18004;48.416;10.066;2023-06-22T05:02:56;6.75;;;4.70;;
31368;SDS011;18004;48.416;10.066;2023-06-22T05:05:23;8.40;;;4.22;;
31368;SDS011;18004;48.416;10.066;2023-06-22T05:07:50;11.32;;;4.25;;
31368;SDS011;18004;48.416;10.066;2023-06-22T05:10:21;7.82;;;4.57;;
31368;SDS011;18004;48.416;10.066;2023-06-22T05:12:46;9.20;;;4.10;;
31368;SDS011;18004;48.416;10.066;2023-06-22T05:15:12;8.07;;;4.43;;
31368;SDS011;18004;48.416;10.066;2023-06-22T05:17:38;4.53;;;3.50;;
31368;SDS011;18004;48.416;10.066;2023-06-22T05:20:11;7.70;;;3.95;;
31368;SDS011;18004;48.416;10.066;2023-06-22T05:22:38;9.85;;;3.53;;
31368;SDS011;18004;48.416;10.066;2023-06-22T05:25:08;10.07;;;3.97;;
31368;SDS011;18004;48.416;10.066;2023-06-22T05:27:35;6.72;;;4.03;;
31368;SDS011;18004;48.416;10.066;2023-06-22T05:30:07;16.52;;;4.95;;
31368;SDS011;18004;48.416;10.066;2023-06-22T05:32:34;9.13;;;4.22;;
31368;SDS011;18004;48.416;10.066;2023-06-22T05:35:01;6.90;;;4.35;;
31368;SDS011;18004;48.416;10.066;2023-06-22T05:37:28;7.90;;;4.10;;
31368;SDS011;18004;48.416;10.066;2023-06-22T05:39:57;10.90;;;4.18;;
31368;SDS011;18004;48.416;10.066;2023-06-22T05:53:16;7.35;;;4.30;;
31368;SDS011;18004;48.416;10.066;2023-06-22T05:55:42;6.32;;;4.13;;
31368;SDS011;18004;48.416;10.066;2023-06-22T05:58:23;6.38;;;3.35;;
31368;SDS011;18004;48.416;10.066;2023-06-22T06:01:48;5.55;;;2.83;;
31368;SDS011;18004;48.416;10.066;2023-06-22T06:04:17;5.57;;;2.97;;
31368;SDS011;18004;48.416;10.066;2023-06-22T06:10:35;6.28;;;3.53;;
31368;SDS011;18004;48.416;10.066;2023-06-22T06:13:03;5.15;;;3.08;;
31368;SDS011;18004;48.416;10.066;2023-06-22T06:15:30;4.75;;;3.15;;
31368;SDS011;18004;48.416;10.066;2023-06-22T06:18:49;6.65;;;3.53;;
31368;SDS011;18004;48.416;10.066;2023-06-22T06:21:54;10.15;;;3.55;;
31368;SDS011;18004;48.416;10.066;2023-06-22T06:25:33;5.78;;;3.22;;
31368;SDS011;18004;48.416;10.066;2023-06-22T06:32:13;6.70;;;3.47;;
31368;SDS011;18004;48.416;10.066;2023-06-22T06:35:06;6.65;;;3.42;;
31368;SDS011;18004;48.416;10.066;2023-06-22T06:37:51;8.52;;;3.58;;
31368;SDS011;18004;48.416;10.066;2023-06-22T06:40:40;7.15;;;3.60;;
31368;SDS011;18004;48.416;10.066;2023-06-22T06:46:40;8.82;;;3.72;;
31368;SDS011;18004;48.416;10.066;2023-06-22T06:49:19;3.13;;;2.70;;
31368;SDS011;18004;48.416;10.066;2023-06-22T06:59:14;7.15;;;3.75;;
31368;SDS011;18004;48.416;10.066;2023-06-22T07:02:19;5.72;;;3.40;;
31368;SDS011;18004;48.416;10.066;2023-06-22T07:33:16;4.88;;;2.90;;
31368;SDS011;18004;48.416;10.066;2023-06-22T10:19:29;10.43;;;3.92;;
31368;SDS011;18004;48.416;10.066;2023-06-22T15:51:30;14.00;;;3.87;;
31368;SDS011;18004;48.416;10.066;2023-06-22T20:07:09;3.75;;;1.65;;
31368;SDS011;18004;48.416;10.066;2023-06-22T20:10:04;7.07;;;3.47;;
31368;SDS011;18004;48.416;10.066;2023-06-22T20:16:07;3.13;;;1.73;;
31368;SDS011;18004;48.416;10.066;2023-06-22T20:19:44;4.40;;;1.85;;
31368;SDS011;18004;48.416;10.066;2023-06-22T20:22:23;6.95;;;1.48;;
31368;SDS011;18004;48.416;10.066;2023-06-22T20:25:24;2.47;;;1.67;;
31368;SDS011;18004;48.416;10.066;2023-06-22T20:28:30;6.68;;;1.88;;
31368;SDS011;18004;48.416;10.066;2023-06-22T20:35:01;5.00;;;2.28;;
31368;SDS011;18004;48.416;10.066;2023-06-22T20:38:06;13.13;;;1.92;;
31368;SDS011;18004;48.416;10.066;2023-06-22T20:40:35;3.17;;;1.85;;
31368;SDS011;18004;48.416;10.066;2023-06-22T20:43:43;5.90;;;2.22;;
31368;SDS011;18004;48.416;10.066;2023-06-22T20:46:46;5.53;;;2.17;;
31368;SDS011;18004;48.416;10.066;2023-06-22T20:53:36;3.65;;;1.70;;
31368;SDS011;18004;48.416;10.066;2023-06-22T21:00:19;7.65;;;2.13;;
31368;SDS011;18004;48.416;10.066;2023-06-22T21:03:41;11.00;;;1.90;;
31368;SDS011;18004;48.416;10.066;2023-06-22T21:06:18;6.70;;;2.35;;
31368;SDS011;18004;48.416;10.066;2023-06-22T21:09:06;3.72;;;2.05;;
31368;SDS011;18004;48.416;10.066;2023-06-22T21:12:19;4.15;;;2.10;;
31368;SDS011;18004;48.416;10.066;2023-06-22T21:16:04;4.40;;;2.15;;
31368;SDS011;18004;48.416;10.066;2023-06-22T21:19:36;11.48;;;3.78;;
31368;SDS011;18004;48.416;10.066;2023-06-22T21:23:17;4.28;;;1.73;;
31368;SDS011;18004;48.416;10.066;2023-06-22T21:26:24;5.20;;;1.90;;
31368;SDS011;18004;48.416;10.066;2023-06-22T21:29:20;3.30;;;1.50;;
31368;SDS011;18004;48.416;10.066;2023-06-22T21:32:13;2.23;;;1.67;;
31368;SDS011;18004;48.416;10.066;2023-06-22T21:35:17;6.55;;;2.00;;
31368;SDS011;18004;48.416;10.066;2023-06-22T21:37:49;7.20;;;2.15;;
31368;SDS011;18004;48.416;10.066;2023-06-22T21:40:53;10.15;;;2.60;;
31368;SDS011;18004;48.416;10.066;2023-06-22T21:44:14;7.88;;;3.97;;
31368;SDS011;18004;48.416;10.066;2023-06-22T21:47:51;9.35;;;4.55;;
31368;SDS011;18004;48.416;10.066;2023-06-22T21:51:06;8.48;;;5.07;;
31368;SDS011;18004;48.416;10.066;2023-06-22T22:00:32;12.75;;;4.97;;
31368;SDS011;18004;48.416;10.066;2023-06-22T22:06:49;4.75;;;3.20;;
31368;SDS011;18004;48.416;10.066;2023-06-22T22:35:51;4.68;;;2.65;;
31368;SDS011;18004;48.416;10.066;2023-06-22T22:38:20;5.25;;;3.53;;
31368;SDS011;18004;48.416;10.066;2023-06-22T22:40:46;7.60;;;5.32;;
31368;SDS011;18004;48.416;10.066;2023-06-22T22:43:41;6.53;;;5.45;;
31368;SDS011;18004;48.416;10.066;2023-06-22T22:46:07;4.43;;;2.22;;
31368;SDS011;18004;48.416;10.066;2023-06-22T22:48:47;12.52;;;4.90;;
31368;SDS011;18004;48.416;10.066;2023-06-22T22:51:33;10.95;;;4.32;;
31368;SDS011;18004;48.416;10.066;2023-06-22T22:55:03;7.80;;;5.60;;
31368;SDS011;18004;48.416;10.066;2023-06-22T23:01:22;7.57;;;4.05;;
31368;SDS011;18004;48.416;10.066;2023-06-22T23:03:47;10.15;;;6.97;;
31368;SDS011;18004;48.416;10.066;2023-06-22T23:06:13;14.77;;;10.85;;
31368;SDS011;18004;48.416;10.066;2023-06-22T23:08:39;6.90;;;4.70;;
31368;SDS011;18004;48.416;10.066;2023-06-22T23:11:05;4.75;;;2.78;;
31368;SDS011;18004;48.416;10.066;2023-06-22T23:13:31;2.95;;;1.70;;
31368;SDS011;18004;48.416;10.066;2023-06-22T23:26:24;4.10;;;1.13;;
31368;SDS011;18004;48.416;10.066;2023-06-22T23:32:28;2.10;;;0.93;;
31368;SDS011;18004;48.416;10.066;2023-06-22T23:39:00;9.88;;;2.58;;
31368;SDS011;18004;48.416;10.066;2023-06-22T23:41:28;8.02;;;3.60;;
31368;SDS011;18004;48.416;10.066;2023-06-22T23:44:01;9.73;;;5.18;;
31368;SDS011;18004;48.416;10.066;2023-06-22T23:46:30;8.25;;;5.15;;
31368;SDS011;18004;48.416;10.066;2023-06-22T23:48:56;10.50;;;6.30;;
31368;SDS011;18004;48.416;10.066;2023-06-22T23:51:22;10.60;;;6.10;;
31368;SDS011;18004;48.416;10.066;2023-06-22T23:53:56;11.85;;;5.07;;
